Time;durP1;ratioP1;P1;durP2;ratioP2;P2;SDS_P1;SDS_P2;PMS_P1;PMS_P2;Temp;Humidity;BMP_temperature;BMP_pressure;BME280_temperature;BME280_humidity;BME280_pressure;Samples;Min_cycle;Max_cycle;Signal;HPM_P1;HPM_P2
2023/05/19 00:01:23;;;;;;;;;;;;;;;19.59;67.93;100860.75;7401903;19;1463;-52
2023/05/19 00:03:53;;;;;;;;;;;;;;;19.53;68.03;100857.78;7403739;19;1769;-50
2023/05/19 00:06:25;;;;;;;;;;;;;;;19.59;67.75;100846.50;7402443;19;1945;-51
2023/05/19 00:08:58;;;;;;;;;;;;;;;19.62;67.86;100851.59;7403337;19;1816;-51
2023/05/19 00:11:27;;;;;;;;;;;;;;;19.62;67.77;100851.59;7403987;19;1046;-51
2023/05/19 00:13:58;;;;;;;;;;;;;;;19.59;67.86;100868.81;7400047;19;1605;-51
2023/05/19 00:16:27;;;;;;;;;;;;;;;19.51;68.00;100849.03;7400548;19;1851;-51
2023/05/19 00:18:56;;;;;;;;;;;;;;;19.57;67.91;100856.53;7402539;19;1732;-51
2023/05/19 00:21:25;;;;;;;;;;;;;;;19.58;67.80;100860.91;7399567;19;1497;-50
2023/05/19 00:23:53;;;;;;;;;;;;;;;19.56;67.93;100860.22;7402449;19;1470;-51
2023/05/19 00:26:21;;;;;;;;;;;;;;;19.57;67.75;100867.25;7402681;19;1051;-51
2023/05/19 00:28:50;;;;;;;;;;;;;;;19.60;67.70;100864.31;7402725;19;1796;-50
2023/05/19 00:31:21;;;;;;;;;;;;;;;19.57;67.89;100867.25;7402829;19;1955;-51
2023/05/19 00:33:50;;;;;;;;;;;;;;;19.59;67.79;100868.81;7399863;19;1875;-51
2023/05/19 00:36:19;;;;;;;;;;;;;;;19.55;67.79;100877.28;7400543;19;1840;-51
2023/05/19 00:38:47;;;;;;;;;;;;;;;19.53;67.85;100876.56;7401895;19;1819;-51
2023/05/19 00:41:16;;;;;;;;;;;;;;;19.56;67.77;100874.47;7402102;19;1391;-51
2023/05/19 00:43:44;;;;;;;;;;;;;;;19.52;67.89;100875.72;7402539;19;991;-51
2023/05/19 00:46:12;;;;;;;;;;;;;;;19.54;67.86;100884.47;7399045;19;2004;-51
2023/05/19 00:48:44;;;;;;;;;;;;;;;19.56;67.64;100876.31;7401191;19;1748;-51
2023/05/19 00:51:15;;;;;;;;;;;;;;;19.58;67.84;100877.00;7400301;19;1935;-51
2023/05/19 00:53:47;;;;;;;;;;;;;;;19.57;67.80;100892.22;7398865;19;1538;-50
2023/05/19 00:56:15;;;;;;;;;;;;;;;19.51;67.86;100879.38;7397658;19;1852;-50
2023/05/19 00:58:44;;;;;;;;;;;;;;;19.60;67.71;100891.13;7399464;19;1478;-51
2023/05/19 01:01:13;;;;;;;;;;;;;;;19.59;67.75;100892.09;7400145;19;1800;-50
2023/05/19 01:03:45;;;;;;;;;;;;;;;19.60;67.65;100888.44;7401291;19;1736;-51
2023/05/19 01:06:14;;;;;;;;;;;;;;;19.54;67.59;100880.97;7401709;19;989;-51
2023/05/19 01:08:42;;;;;;;;;;;;;;;19.56;67.62;100884.34;7400616;19;1946;-51
2023/05/19 01:11:10;;;;;;;;;;;;;;;19.56;67.62;100887.03;7401641;19;1027;-51
2023/05/19 01:13:39;;;;;;;;;;;;;;;19.52;67.63;100885.56;7400597;19;1384;-50
2023/05/19 01:16:11;;;;;;;;;;;;;;;19.46;67.77;100874.44;7399136;19;1854;-51
2023/05/19 01:18:55;;;;;;;;;;;;;;;19.48;67.85;100891.22;7399741;19;1332;-50
2023/05/19 01:21:43;;;;;;;;;;;;;;;19.52;67.81;100888.25;7399833;19;1724;-51
2023/05/19 01:24:26;;;;;;;;;;;;;;;19.56;67.53;100893.25;7399972;19;1686;-50
2023/05/19 01:27:10;;;;;;;;;;;;;;;19.52;67.78;100866.81;7399362;19;1725;-50
2023/05/19 01:29:58;;;;;;;;;;;;;;;19.51;67.77;100878.53;7400271;19;1835;-50
2023/05/19 01:32:30;;;;;;;;;;;;;;;19.43;67.86;100865.78;7400667;19;1784;-51
2023/05/19 01:34:58;;;;;;;;;;;;;;;19.47;67.91;100876.09;7399680;19;1378;-51
2023/05/19 01:37:27;;;;;;;;;;;;;;;19.46;67.67;100885.16;7397329;19;1846;-51
2023/05/19 01:39:56;;;;;;;;;;;;;;;19.42;67.96;100875.69;7398957;19;1740;-50
2023/05/19 01:42:24;;;;;;;;;;;;;;;19.50;67.74;100872.31;7398577;19;1742;-50
2023/05/19 01:44:54;;;;;;;;;;;;;;;19.45;67.79;100880.75;7398882;19;1435;-50
2023/05/19 01:47:22;;;;;;;;;;;;;;;19.43;68.08;100873.84;7398576;19;1844;-50
2023/05/19 01:49:53;;;;;;;;;;;;;;;19.39;67.91;100875.94;7399922;19;1776;-50
2023/05/19 01:52:21;;;;;;;;;;;;;;;19.39;67.98;100885.81;7400773;19;1043;-50
2023/05/19 01:54:49;;;;;;;;;;;;;;;19.43;67.73;100872.00;7400486;19;1788;-50
2023/05/19 01:57:24;;;;;;;;;;;;;;;19.44;67.84;100880.91;7397319;19;1879;-51
2023/05/19 01:59:59;;;;;;;;;;;;;;;19.37;68.12;100871.72;7398733;19;1958;-50
2023/05/19 02:02:33;;;;;;;;;;;;;;;19.48;67.83;100880.50;7398773;19;1865;-51
2023/05/19 02:05:10;;;;;;;;;;;;;;;19.41;67.97;100883.84;7396294;19;1852;-50
2023/05/19 02:07:43;;;;;;;;;;;;;;;19.35;68.08;100882.56;7398352;19;1507;-51
2023/05/19 02:10:13;;;;;;;;;;;;;;;19.36;68.09;100884.28;7398594;19;1748;-50
2023/05/19 02:12:42;;;;;;;;;;;;;;;19.43;67.94;100890.78;7398287;19;1458;-51
2023/05/19 02:15:12;;;;;;;;;;;;;;;19.45;67.63;100896.84;7395802;19;1553;-51
2023/05/19 02:17:46;;;;;;;;;;;;;;;19.45;67.48;100891.47;7396664;19;1853;-51
2023/05/19 02:20:17;;;;;;;;;;;;;;;19.42;67.73;100902.50;7398757;19;1846;-51
2023/05/19 02:22:46;;;;;;;;;;;;;;;19.45;67.65;100904.91;7397945;19;1391;-51
2023/05/19 02:25:14;;;;;;;;;;;;;;;19.44;67.74;100903.22;7398681;19;1395;-51
2023/05/19 02:27:43;;;;;;;;;;;;;;;19.43;67.72;100920.28;7398765;19;1067;-50
2023/05/19 02:30:12;;;;;;;;;;;;;;;19.45;67.38;100929.03;7399415;19;1011;-50
2023/05/19 02:32:40;;;;;;;;;;;;;;;19.46;67.66;100921.84;7398524;19;1609;-50
2023/05/19 02:35:09;;;;;;;;;;;;;;;19.44;67.46;100924.66;7394654;19;1926;-50
2023/05/19 02:37:40;;;;;;;;;;;;;;;19.36;67.74;100916.44;7397196;19;1873;-51
2023/05/19 02:40:09;;;;;;;;;;;;;;;19.32;67.94;100936.47;7396735;19;1962;-50
2023/05/19 02:42:37;;;;;;;;;;;;;;;19.27;68.02;100936.84;7397007;19;1803;-50
2023/05/19 02:45:06;;;;;;;;;;;;;;;19.37;67.76;100941.44;7395531;19;1757;-50
2023/05/19 02:47:35;;;;;;;;;;;;;;;19.29;68.00;100939.41;7397990;19;1837;-51
2023/05/19 02:50:03;;;;;;;;;;;;;;;19.32;67.80;100941.84;7396444;19;1411;-50
2023/05/19 02:52:31;;;;;;;;;;;;;;;19.34;67.68;100937.19;7397968;19;1493;-50
2023/05/19 02:55:02;;;;;;;;;;;;;;;19.35;67.61;100938.88;7398128;19;1028;-51
2023/05/19 02:57:32;;;;;;;;;;;;;;;19.30;67.86;100957.22;7396829;19;1874;-50
2023/05/19 03:00:00;;;;;;;;;;;;;;;19.33;67.72;100946.19;7397110;19;1911;-51
2023/05/19 03:02:28;;;;;;;;;;;;;;;19.25;67.86;100944.19;7397234;19;1541;-50
2023/05/19 03:04:57;;;;;;;;;;;;;;;19.42;67.69;100949.94;7397412;19;1806;-50
2023/05/19 03:07:25;;;;;;;;;;;;;;;19.37;67.52;100955.69;7396104;19;1807;-51
2023/05/19 03:09:54;;;;;;;;;;;;;;;19.41;67.58;100958.94;7395759;19;1733;-50
2023/05/19 03:12:24;;;;;;;;;;;;;;;19.33;67.68;100967.66;7395664;19;1827;-50
2023/05/19 03:14:53;;;;;;;;;;;;;;;19.37;67.67;100970.94;7395235;19;1859;-51
2023/05/19 03:17:21;;;;;;;;;;;;;;;19.29;67.91;100960.84;7398633;19;1861;-51
2023/05/19 03:19:50;;;;;;;;;;;;;;;19.35;67.61;100968.38;7403757;19;1510;-51
2023/05/19 03:22:19;;;;;;;;;;;;;;;19.39;67.61;100971.63;7404114;19;1679;-51
2023/05/19 03:24:49;;;;;;;;;;;;;;;19.44;67.29;100975.63;7403607;19;1752;-50
2023/05/19 03:27:18;;;;;;;;;;;;;;;19.42;67.55;100980.28;7402899;19;1718;-50
2023/05/19 03:29:48;;;;;;;;;;;;;;;19.42;67.46;100977.59;7402734;19;1761;-50
2023/05/19 03:32:17;;;;;;;;;;;;;;;19.38;67.46;100983.38;7403609;19;1027;-50
2023/05/19 03:34:45;;;;;;;;;;;;;;;19.44;67.28;100985.50;7400422;19;1916;-51
2023/05/19 03:37:14;;;;;;;;;;;;;;;19.33;67.35;100978.38;7401940;19;1848;-51
2023/05/19 03:39:42;;;;;;;;;;;;;;;19.32;67.51;100992.78;7403717;19;1526;-50
2023/05/19 03:42:10;;;;;;;;;;;;;;;19.34;67.76;100992.63;7403225;19;1740;-50
2023/05/19 03:44:38;;;;;;;;;;;;;;;19.36;67.38;100990.66;7403280;19;1814;-51
2023/05/19 03:47:10;;;;;;;;;;;;;;;19.33;67.49;100999.84;7400593;19;1451;-51
2023/05/19 03:49:38;;;;;;;;;;;;;;;19.32;67.42;100986.56;7404047;19;983;-51
2023/05/19 03:52:06;;;;;;;;;;;;;;;19.43;67.19;100992.69;7402489;19;1864;-51
2023/05/19 03:54:35;;;;;;;;;;;;;;;19.40;67.21;101006.38;7403212;19;2070;-51
2023/05/19 03:57:03;;;;;;;;;;;;;;;19.50;66.88;100997.50;7400845;19;1848;-51
2023/05/19 03:59:32;;;;;;;;;;;;;;;19.48;67.13;101000.34;7402941;19;1753;-51
2023/05/19 04:02:00;;;;;;;;;;;;;;;19.47;67.12;101012.88;7400448;19;1678;-51
2023/05/19 04:04:31;;;;;;;;;;;;;;;19.48;67.10;100981.59;7402018;19;1733;-51
2023/05/19 04:07:00;;;;;;;;;;;;;;;19.52;66.88;101019.69;7400945;19;1764;-51
2023/05/19 04:09:30;;;;;;;;;;;;;;;19.56;66.92;101013.94;7400026;19;1753;-52
2023/05/19 04:11:59;;;;;;;;;;;;;;;19.65;66.45;101009.59;7403865;19;1014;-51
2023/05/19 04:14:27;;;;;;;;;;;;;;;19.61;66.44;100994.75;7402438;19;1859;-51
2023/05/19 04:16:55;;;;;;;;;;;;;;;19.55;66.72;101014.06;7401071;19;1853;-51
2023/05/19 04:19:23;;;;;;;;;;;;;;;19.72;66.20;100999.22;7401302;19;1813;-51
2023/05/19 04:21:55;;;;;;;;;;;;;;;19.82;66.01;101011.69;7402031;19;1824;-51
2023/05/19 04:24:24;;;;;;;;;;;;;;;19.71;66.13;101011.78;7401611;19;1417;-51
2023/05/19 04:26:52;;;;;;;;;;;;;;;19.85;65.98;101015.94;7401238;19;1716;-50
2023/05/19 04:29:22;;;;;;;;;;;;;;;19.92;65.69;101010.91;7399104;19;1745;-51
2023/05/19 04:31:51;;;;;;;;;;;;;;;19.94;65.68;101015.13;7401135;19;1669;-50
2023/05/19 04:34:19;;;;;;;;;;;;;;;19.95;65.81;101021.34;7400285;19;1749;-51
2023/05/19 04:36:48;;;;;;;;;;;;;;;20.12;65.41;101007.28;7401042;19;1828;-51
2023/05/19 04:39:18;;;;;;;;;;;;;;;19.99;65.59;101020.94;7401052;19;1737;-52
2023/05/19 04:41:48;;;;;;;;;;;;;;;20.07;65.29;101012.19;7400978;19;1815;-51
2023/05/19 04:44:16;;;;;;;;;;;;;;;20.01;65.54;101010.91;7401869;19;1158;-51
2023/05/19 04:46:45;;;;;;;;;;;;;;;19.94;65.72;101016.97;7400000;19;1856;-51
2023/05/19 04:49:13;;;;;;;;;;;;;;;20.05;65.42;101019.53;7401522;19;1856;-51
2023/05/19 04:51:44;;;;;;;;;;;;;;;19.99;65.58;101012.03;7401035;19;1888;-51
2023/05/19 04:54:13;;;;;;;;;;;;;;;20.10;65.29;101025.38;7401801;19;1769;-51
2023/05/19 04:56:44;;;;;;;;;;;;;;;19.98;65.56;101021.09;7400797;19;1831;-52
2023/05/19 04:59:12;;;;;;;;;;;;;;;20.00;65.86;101035.22;7400470;19;1748;-51
2023/05/19 05:01:41;;;;;;;;;;;;;;;19.80;66.33;101021.72;7400334;19;1694;-51
2023/05/19 05:04:10;;;;;;;;;;;;;;;19.71;66.39;101029.69;7399601;19;1852;-51
2023/05/19 05:06:41;;;;;;;;;;;;;;;19.48;67.43;101030.69;7400477;19;1336;-51
2023/05/19 05:09:10;;;;;;;;;;;;;;;19.39;67.50;101028.81;7400405;19;1827;-51
2023/05/19 05:11:39;;;;;;;;;;;;;;;19.31;67.90;101044.69;7400879;19;1808;-51
2023/05/19 05:14:10;;;;;;;;;;;;;;;19.37;67.66;101048.69;7401479;19;955;-51
2023/05/19 05:16:39;;;;;;;;;;;;;;;19.35;67.66;101023.84;7400275;19;1900;-51
2023/05/19 05:19:08;;;;;;;;;;;;;;;19.39;67.86;101036.84;7399817;19;1859;-51
2023/05/19 05:21:36;;;;;;;;;;;;;;;19.42;67.68;101033.91;7400455;19;1316;-51
2023/05/19 05:24:05;;;;;;;;;;;;;;;19.61;67.20;101048.41;7399659;19;1819;-51
2023/05/19 05:26:34;;;;;;;;;;;;;;;19.63;67.26;101038.41;7399812;19;1796;-50
2023/05/19 05:29:03;;;;;;;;;;;;;;;19.79;66.54;101048.69;7399119;19;1769;-51
2023/05/19 05:31:34;;;;;;;;;;;;;;;20.03;65.75;101048.34;7398380;19;1748;-51
2023/05/19 05:34:02;;;;;;;;;;;;;;;19.98;66.00;101054.13;7397997;19;1435;-51
2023/05/19 05:36:30;;;;;;;;;;;;;;;19.82;66.33;101046.59;7399643;19;1838;-51
2023/05/19 05:38:59;;;;;;;;;;;;;;;19.80;66.68;101071.88;7398990;19;1737;-50
2023/05/19 05:41:28;;;;;;;;;;;;;;;19.95;66.09;101054.41;7400329;19;1110;-51
2023/05/19 05:43:56;;;;;;;;;;;;;;;19.69;66.98;101048.59;7398202;19;1019;-51
2023/05/19 05:46:24;;;;;;;;;;;;;;;19.79;66.60;101065.63;7397573;19;1848;-51
2023/05/19 05:48:56;;;;;;;;;;;;;;;19.83;66.55;101045.59;7398904;19;1403;-51
2023/05/19 05:51:24;;;;;;;;;;;;;;;20.19;65.59;101064.84;7398643;19;1336;-51
2023/05/19 05:53:53;;;;;;;;;;;;;;;20.31;65.35;101048.59;7398837;19;1336;-51
2023/05/19 05:56:22;;;;;;;;;;;;;;;20.18;65.40;101047.00;7398649;19;1736;-51
2023/05/19 05:58:51;;;;;;;;;;;;;;;20.19;65.39;101046.03;7395978;19;1832;-51
2023/05/19 06:01:20;;;;;;;;;;;;;;;20.25;65.43;101055.34;7397775;19;1651;-51
2023/05/19 06:03:48;;;;;;;;;;;;;;;20.27;65.39;101061.44;7399208;19;1415;-51
2023/05/19 06:06:20;;;;;;;;;;;;;;;20.27;65.21;101067.69;7399094;19;1831;-56
2023/05/19 06:08:48;;;;;;;;;;;;;;;20.25;65.27;101066.09;7400137;19;1016;-50
2023/05/19 06:11:16;;;;;;;;;;;;;;;20.29;65.33;101077.41;7399835;19;1015;-51
2023/05/19 06:13:44;;;;;;;;;;;;;;;20.29;65.23;101077.41;7399277;19;1888;-51
2023/05/19 06:16:13;;;;;;;;;;;;;;;20.23;65.58;101077.00;7397754;19;1601;-51
2023/05/19 06:18:41;;;;;;;;;;;;;;;20.29;65.45;101070.22;7396428;19;1850;-51
2023/05/19 06:21:12;;;;;;;;;;;;;;;20.25;65.65;101080.41;7397851;19;1473;-51
2023/05/19 06:23:43;;;;;;;;;;;;;;;20.22;65.57;101091.41;7397776;19;1698;-51
2023/05/19 06:26:11;;;;;;;;;;;;;;;20.24;65.49;101080.53;7398342;19;1725;-51
2023/05/19 06:28:39;;;;;;;;;;;;;;;20.18;65.75;101078.38;7398137;19;1411;-51
2023/05/19 06:31:08;;;;;;;;;;;;;;;20.16;65.78;101089.25;7398398;19;1847;-51
2023/05/19 06:33:36;;;;;;;;;;;;;;;20.14;65.80;101087.69;7394988;19;1597;-50
2023/05/19 06:36:04;;;;;;;;;;;;;;;20.17;65.82;101107.06;7397578;19;1678;-51
2023/05/19 06:38:33;;;;;;;;;;;;;;;20.26;65.74;101098.19;7398139;19;1863;-52
2023/05/19 06:41:03;;;;;;;;;;;;;;;20.29;65.50;101102.44;7397916;19;1938;-52
2023/05/19 06:43:32;;;;;;;;;;;;;;;20.25;65.82;101099.19;7397496;19;1899;-51
2023/05/19 06:46:00;;;;;;;;;;;;;;;20.32;65.59;101104.03;7396695;19;1785;-50
2023/05/19 06:48:28;;;;;;;;;;;;;;;20.07;66.41;101098.09;7397551;19;1805;-51
2023/05/19 06:50:57;;;;;;;;;;;;;;;19.99;66.74;101103.31;7395241;19;1717;-51
2023/05/19 06:53:25;;;;;;;;;;;;;;;19.94;66.98;101103.72;7395784;19;1395;-51
2023/05/19 06:55:53;;;;;;;;;;;;;;;19.81;67.33;101101.22;7398016;19;1804;-51
2023/05/19 06:58:25;;;;;;;;;;;;;;;19.70;67.80;101089.72;7396123;19;1850;-51
2023/05/19 07:00:53;;;;;;;;;;;;;;;19.67;67.75;101105.06;7396713;19;1827;-51
2023/05/19 07:03:21;;;;;;;;;;;;;;;19.88;67.37;101100.72;7398694;19;979;-52
2023/05/19 07:05:50;;;;;;;;;;;;;;;20.12;66.45;101085.16;7398728;19;967;-51
2023/05/19 07:08:18;;;;;;;;;;;;;;;20.22;66.14;101094.09;7396016;19;1814;-51
2023/05/19 07:10:46;;;;;;;;;;;;;;;20.16;66.23;101088.41;7396186;19;1749;-51
2023/05/19 07:13:15;;;;;;;;;;;;;;;20.13;66.41;101096.72;7396675;19;1722;-51
2023/05/19 07:15:47;;;;;;;;;;;;;;;19.97;66.71;101079.28;7395857;19;1745;-51
2023/05/19 07:18:15;;;;;;;;;;;;;;;19.99;66.89;101087.19;7396760;19;1841;-50
2023/05/19 07:20:44;;;;;;;;;;;;;;;19.77;67.89;101088.22;7396469;19;2002;-51
2023/05/19 07:23:12;;;;;;;;;;;;;;;19.68;67.95;101084.47;7396596;19;1702;-52
2023/05/19 07:25:40;;;;;;;;;;;;;;;19.71;68.05;101094.97;7397909;19;951;-51
2023/05/19 07:28:08;;;;;;;;;;;;;;;19.64;68.13;101093.78;7396489;19;1864;-51
2023/05/19 07:30:37;;;;;;;;;;;;;;;19.64;68.12;101097.28;7395733;19;1801;-51
2023/05/19 07:33:08;;;;;;;;;;;;;;;19.70;68.04;101087.88;7397166;19;1828;-51
2023/05/19 07:35:36;;;;;;;;;;;;;;;19.71;67.85;101091.41;7397784;19;1004;-51
2023/05/19 07:38:06;;;;;;;;;;;;;;;19.67;68.05;101093.50;7396232;19;1869;-51
2023/05/19 07:40:34;;;;;;;;;;;;;;;19.63;68.22;101097.41;7395729;19;1970;-51
2023/05/19 07:43:02;;;;;;;;;;;;;;;19.62;68.06;101101.09;7395657;19;1858;-51
2023/05/19 07:45:31;;;;;;;;;;;;;;;19.78;67.90;101096.13;7394612;19;1465;-51
2023/05/19 07:47:59;;;;;;;;;;;;;;;19.98;67.06;101086.34;7394038;19;1832;-51
2023/05/19 07:50:30;;;;;;;;;;;;;;;20.01;67.00;101085.22;7395863;19;1689;-52
2023/05/19 07:52:58;;;;;;;;;;;;;;;20.05;66.86;101087.53;7396210;19;1765;-52
2023/05/19 07:55:28;;;;;;;;;;;;;;;20.09;66.64;101096.13;7395302;19;1390;-52
2023/05/19 07:57:56;;;;;;;;;;;;;;;20.05;66.65;101083.97;7395536;19;1842;-51
2023/05/19 08:00:25;;;;;;;;;;;;;;;19.88;67.27;101087.31;7396874;19;1034;-51
2023/05/19 08:02:55;;;;;;;;;;;;;;;19.73;68.10;101101.03;7396143;19;1885;-52
2023/05/19 08:05:24;;;;;;;;;;;;;;;19.63;68.42;101087.53;7403395;19;1927;-52
2023/05/19 08:07:55;;;;;;;;;;;;;;;19.61;68.43;101094.00;7403397;19;1722;-55
2023/05/19 08:10:23;;;;;;;;;;;;;;;19.57;68.53;101088.06;7403102;19;1740;-52
2023/05/19 08:12:51;;;;;;;;;;;;;;;19.60;68.66;101086.97;7401337;19;1434;-51
2023/05/19 08:15:20;;;;;;;;;;;;;;;19.60;68.38;101087.81;7401537;19;1922;-51
2023/05/19 08:17:48;;;;;;;;;;;;;;;19.73;68.27;101090.31;7400036;19;1958;-52
2023/05/19 08:20:17;;;;;;;;;;;;;;;19.94;67.55;101092.13;7403422;19;1344;-51
2023/05/19 08:22:45;;;;;;;;;;;;;;;20.06;66.94;101083.84;7402988;19;1852;-51
2023/05/19 08:25:18;;;;;;;;;;;;;;;20.12;66.72;101092.34;7400718;19;1039;-52
2023/05/19 08:27:46;;;;;;;;;;;;;;;20.02;66.97;101089.63;7402745;19;1958;-51
2023/05/19 08:30:15;;;;;;;;;;;;;;;20.04;66.87;101083.13;7402994;19;1729;-51
2023/05/19 08:32:43;;;;;;;;;;;;;;;20.04;67.11;101076.91;7398463;19;951;-51
2023/05/19 08:35:12;;;;;;;;;;;;;;;20.06;67.00;101091.06;7401326;19;1868;-51
2023/05/19 08:37:40;;;;;;;;;;;;;;;20.19;66.44;101078.25;7402212;19;1870;-52
2023/05/19 08:40:10;;;;;;;;;;;;;;;20.26;66.18;101082.06;7401832;19;1415;-51
2023/05/19 08:42:41;;;;;;;;;;;;;;;20.22;66.48;101086.03;7402205;19;1705;-51
2023/05/19 08:45:10;;;;;;;;;;;;;;;20.33;66.18;101081.53;7399787;19;1047;-51
2023/05/19 08:47:38;;;;;;;;;;;;;;;20.16;66.43;101075.84;7399489;19;1844;-51
2023/05/19 08:50:09;;;;;;;;;;;;;;;20.19;66.69;101069.31;7399748;19;1390;-51
2023/05/19 08:52:44;;;;;;;;;;;;;;;20.15;66.70;101078.66;7401901;19;1824;-51
2023/05/19 08:55:20;;;;;;;;;;;;;;;20.12;66.76;101086.97;7401902;19;1454;-51
2023/05/19 08:57:51;;;;;;;;;;;;;;;20.09;66.72;101087.25;7401796;19;1855;-51
2023/05/19 09:00:21;;;;;;;;;;;;;;;20.20;66.52;101074.56;7401058;19;1740;-51
2023/05/19 09:02:51;;;;;;;;;;;;;;;20.26;66.16;101073.19;7401508;19;1003;-51
2023/05/19 09:05:20;;;;;;;;;;;;;;;20.17;66.69;101069.47;7400998;19;1883;-51
2023/05/19 09:07:48;;;;;;;;;;;;;;;20.22;66.45;101072.59;7401816;19;1820;-51
2023/05/19 09:10:17;;;;;;;;;;;;;;;20.21;66.46;101078.09;7400477;19;1930;-51
2023/05/19 09:12:48;;;;;;;;;;;;;;;20.19;66.40;101077.38;7400160;19;1515;-51
2023/05/19 09:15:19;;;;;;;;;;;;;;;19.87;67.54;101078.38;7399639;19;1469;-52
2023/05/19 09:17:49;;;;;;;;;;;;;;;19.78;67.97;101058.56;7401143;19;1859;-51
2023/05/19 09:20:18;;;;;;;;;;;;;;;19.71;68.29;101062.75;7400679;19;1827;-51
2023/05/19 09:22:46;;;;;;;;;;;;;;;19.66;68.16;101059.59;7400216;19;1406;-51
2023/05/19 09:25:21;;;;;;;;;;;;;;;19.74;68.23;101067.03;7400796;19;1990;-52
2023/05/19 09:27:50;;;;;;;;;;;;;;;19.80;67.99;101067.34;7400992;19;1048;-51
2023/05/19 09:30:21;;;;;;;;;;;;;;;19.67;68.19;101066.66;7400175;19;1542;-52
2023/05/19 09:32:49;;;;;;;;;;;;;;;19.64;68.43;101066.94;7400388;19;1958;-51
2023/05/19 09:35:19;;;;;;;;;;;;;;;19.73;68.19;101068.84;7401839;19;944;-51
2023/05/19 09:37:47;;;;;;;;;;;;;;;19.97;67.31;101068.53;7400956;19;1844;-51
2023/05/19 09:40:16;;;;;;;;;;;;;;;20.12;66.99;101054.75;7396884;19;1844;-51
2023/05/19 09:42:47;;;;;;;;;;;;;;;20.24;66.43;101056.34;7398789;19;1836;-51
2023/05/19 09:45:16;;;;;;;;;;;;;;;20.22;66.44;101048.44;7397948;19;1376;-51
2023/05/19 09:47:47;;;;;;;;;;;;;;;20.21;66.43;101060.16;7400010;19;1947;-51
2023/05/19 09:50:15;;;;;;;;;;;;;;;20.22;66.44;101051.13;7399666;19;1355;-51
2023/05/19 09:52:44;;;;;;;;;;;;;;;20.30;66.38;101041.53;7399093;19;1375;-51
2023/05/19 09:55:14;;;;;;;;;;;;;;;20.21;66.46;101048.56;7399227;19;1753;-52
2023/05/19 09:57:43;;;;;;;;;;;;;;;20.26;66.06;101041.78;7400777;19;1012;-51
2023/05/19 10:00:16;;;;;;;;;;;;;;;20.27;66.33;101039.94;7398746;19;1840;-51
2023/05/19 10:02:49;;;;;;;;;;;;;;;20.32;66.35;101044.94;7399671;19;1813;-51
2023/05/19 10:05:18;;;;;;;;;;;;;;;20.24;66.33;101049.13;7398366;19;1856;-51
2023/05/19 10:07:47;;;;;;;;;;;;;;;20.07;66.72;101047.09;7399191;19;1936;-51
2023/05/19 10:10:16;;;;;;;;;;;;;;;19.84;67.89;101049.13;7398529;19;1020;-52
2023/05/19 10:12:45;;;;;;;;;;;;;;;19.71;68.26;101052.03;7397659;19;1816;-52
2023/05/19 10:15:14;;;;;;;;;;;;;;;19.73;68.03;101035.81;7398064;19;1729;-51
2023/05/19 10:17:43;;;;;;;;;;;;;;;19.86;67.92;101034.59;7398759;19;1849;-51
2023/05/19 10:20:14;;;;;;;;;;;;;;;19.89;67.53;101035.31;7396650;19;1849;-51
2023/05/19 10:22:44;;;;;;;;;;;;;;;19.96;67.26;101031.13;7398005;19;1785;-51
2023/05/19 10:25:13;;;;;;;;;;;;;;;19.97;67.33;101022.06;7398931;19;1741;-52
2023/05/19 10:27:45;;;;;;;;;;;;;;;20.17;66.76;101039.91;7395128;19;1990;-51
2023/05/19 10:30:16;;;;;;;;;;;;;;;20.19;66.69;101019.19;7398946;19;1962;-51
2023/05/19 10:32:47;;;;;;;;;;;;;;;20.26;66.39;101025.69;7398165;19;1541;-52
2023/05/19 10:35:28;;;;;;;;;;;;;;;20.26;66.49;101014.09;7396531;19;1489;-52
2023/05/19 10:37:59;;;;;;;;;;;;;;;20.31;66.21;101014.53;7397035;19;1826;-52
2023/05/19 10:40:30;;;;;;;;;;;;;;;20.38;65.93;101012.16;7395546;19;1838;-51
2023/05/19 10:43:14;;;;;;;;;;;;;;;20.21;66.62;101017.22;7396341;19;1292;-52
2023/05/19 10:45:46;;;;;;;;;;;;;;;19.88;67.78;101004.94;7396003;19;1864;-51
2023/05/19 10:48:18;;;;;;;;;;;;;;;19.83;67.93;101015.22;7395665;19;1761;-51
2023/05/19 10:50:49;;;;;;;;;;;;;;;19.67;68.53;101007.63;7397184;19;1825;-51
2023/05/19 10:53:21;;;;;;;;;;;;;;;19.68;68.44;101004.81;7396119;19;1336;-52
2023/05/19 10:55:54;;;;;;;;;;;;;;;19.94;67.78;101008.94;7398637;19;1804;-51
2023/05/19 10:58:37;;;;;;;;;;;;;;;20.11;67.18;100991.31;7397126;19;1859;-52
2023/05/19 11:01:08;;;;;;;;;;;;;;;20.18;67.00;100995.16;7397709;19;1819;-51
2023/05/19 11:03:45;;;;;;;;;;;;;;;20.27;66.42;100992.50;7396816;19;1993;-51
2023/05/19 11:06:32;;;;;;;;;;;;;;;20.32;66.44;101004.66;7398169;19;1749;-51
2023/05/19 11:09:04;;;;;;;;;;;;;;;20.26;66.50;100998.81;7396902;19;1686;-52
2023/05/19 11:11:45;;;;;;;;;;;;;;;20.22;66.39;100992.03;7397445;19;1442;-51
2023/05/19 11:14:14;;;;;;;;;;;;;;;20.20;66.54;100988.66;7397683;19;1118;-52
2023/05/19 11:16:44;;;;;;;;;;;;;;;20.25;66.32;100994.47;7397616;19;1884;-52
2023/05/19 11:19:19;;;;;;;;;;;;;;;20.25;66.63;100982.84;7396501;19;1880;-51
2023/05/19 11:21:54;;;;;;;;;;;;;;;20.26;66.41;100977.34;7396869;19;1869;-51
2023/05/19 11:24:39;;;;;;;;;;;;;;;20.26;66.50;100988.09;7395749;19;1825;-51
2023/05/19 11:27:25;;;;;;;;;;;;;;;20.22;66.56;100981.28;7396781;19;1908;-51
2023/05/19 11:29:54;;;;;;;;;;;;;;;20.21;66.58;100984.13;7396484;19;1967;-52
2023/05/19 11:32:23;;;;;;;;;;;;;;;20.30;66.31;100983.28;7395862;19;1947;-51
2023/05/19 11:34:51;;;;;;;;;;;;;;;20.42;66.14;100981.34;7395329;19;1423;-52
2023/05/19 11:37:22;;;;;;;;;;;;;;;20.35;66.03;100973.00;7397041;19;1726;-52
2023/05/19 11:39:51;;;;;;;;;;;;;;;20.21;66.42;100960.81;7401888;19;1839;-52
2023/05/19 11:42:19;;;;;;;;;;;;;;;19.79;67.98;100965.50;7403502;19;1383;-51
2023/05/19 11:44:48;;;;;;;;;;;;;;;19.81;67.99;100958.16;7402499;19;1744;-51
2023/05/19 11:47:17;;;;;;;;;;;;;;;19.67;68.58;100956.66;7401272;19;1470;-51
2023/05/19 11:49:46;;;;;;;;;;;;;;;19.85;68.05;100949.69;7405085;19;984;-51
2023/05/19 11:52:14;;;;;;;;;;;;;;;20.10;67.07;100955.56;7404642;19;1063;-51
2023/05/19 11:54:49;;;;;;;;;;;;;;;20.14;67.11;100954.28;7403216;19;1864;-51
2023/05/19 11:57:18;;;;;;;;;;;;;;;20.03;67.42;100951.72;7403781;19;1876;-51
2023/05/19 11:59:48;;;;;;;;;;;;;;;19.77;68.23;100936.09;7401449;19;1980;-51
2023/05/19 12:02:20;;;;;;;;;;;;;;;19.94;67.53;100917.66;7403820;19;1399;-52
2023/05/19 12:04:49;;;;;;;;;;;;;;;20.29;66.75;100930.56;7403084;19;1406;-51
2023/05/19 12:07:19;;;;;;;;;;;;;;;20.29;66.54;100916.28;7402307;19;1730;-51
2023/05/19 12:09:50;;;;;;;;;;;;;;;20.35;66.06;100905.84;7402338;19;1760;-51
2023/05/19 12:12:19;;;;;;;;;;;;;;;20.25;66.34;100918.41;7401466;19;1438;-51
2023/05/19 12:14:48;;;;;;;;;;;;;;;20.14;66.68;100924.75;7403274;19;1871;-51
2023/05/19 12:17:18;;;;;;;;;;;;;;;20.19;66.42;100909.09;7403601;19;1824;-52
2023/05/19 12:19:47;;;;;;;;;;;;;;;19.85;67.51;100911.28;7403000;19;1846;-51
2023/05/19 12:22:16;;;;;;;;;;;;;;;19.70;68.02;100908.09;7403387;19;1048;-51
2023/05/19 12:24:45;;;;;;;;;;;;;;;19.77;67.81;100908.44;7402171;19;1470;-51
2023/05/19 12:27:19;;;;;;;;;;;;;;;19.76;67.89;100904.91;7402281;19;1954;-51
2023/05/19 12:29:51;;;;;;;;;;;;;;;19.75;67.97;100908.56;7402185;19;1865;-51
2023/05/19 12:32:19;;;;;;;;;;;;;;;19.75;67.71;100902.34;7401495;19;1888;-51
2023/05/19 12:34:48;;;;;;;;;;;;;;;19.78;67.78;100899.41;7401757;19;1301;-51
2023/05/19 12:37:16;;;;;;;;;;;;;;;19.70;68.00;100893.84;7402354;19;1736;-51
2023/05/19 12:39:44;;;;;;;;;;;;;;;19.66;68.06;100895.94;7400444;19;1879;-52
2023/05/19 12:42:13;;;;;;;;;;;;;;;19.78;67.76;100900.25;7402093;19;1764;-51
2023/05/19 12:44:50;;;;;;;;;;;;;;;19.78;67.84;100892.19;7401071;19;1852;-51
2023/05/19 12:47:19;;;;;;;;;;;;;;;19.71;68.05;100887.47;7402136;19;1489;-52
2023/05/19 12:49:58;;;;;;;;;;;;;;;19.72;68.11;100890.06;7401289;19;989;-51
2023/05/19 12:52:26;;;;;;;;;;;;;;;19.71;68.01;100890.16;7402939;19;1037;-51
2023/05/19 12:54:59;;;;;;;;;;;;;;;19.79;67.98;100903.78;7401359;19;1839;-51
2023/05/19 12:57:29;;;;;;;;;;;;;;;19.85;67.65;100900.53;7401448;19;1860;-51
2023/05/19 13:00:05;;;;;;;;;;;;;;;19.82;67.88;100895.47;7400985;19;1887;-52
2023/05/19 13:02:35;;;;;;;;;;;;;;;19.78;68.12;100897.56;7400601;19;1943;-51